sensor_id;sensor_type;location;lat;lon;timestamp;pressure;altitude;pressure_sealevel;temperature;humidity
12763;BME280;6445;52.490;13.378;2024-03-25T00:01:31;39295.28;;;-146.10;100.00
12763;BME280;6445;52.490;13.378;2024-03-25T00:03:56;43457.09;;;-146.10;100.00
12763;BME280;6445;52.490;13.378;2024-03-25T00:06:22;40990.59;;;-146.10;100.00
12763;BME280;6445;52.490;13.378;2024-03-25T00:08:47;40884.88;;;-146.10;100.00
12763;BME280;6445;52.490;13.378;2024-03-25T00:11:12;36257.50;;;-146.10;100.00
12763;BME280;6445;52.490;13.378;2024-03-25T00:13:38;34785.31;;;-146.10;100.00
12763;BME280;6445;52.490;13.378;2024-03-25T00:16:03;33112.59;;;-146.10;100.00
12763;BME280;6445;52.490;13.378;2024-03-25T00:18:30;32284.44;;;-146.10;100.00
12763;BME280;6445;52.490;13.378;2024-03-25T00:20:55;33325.63;;;-146.10;100.00
12763;BME280;6445;52.490;13.378;2024-03-25T00:23:20;34408.88;;;-146.10;100.00
12763;BME280;6445;52.490;13.378;2024-03-25T00:25:46;36562.38;;;-146.10;100.00
12763;BME280;6445;52.490;13.378;2024-03-25T00:28:11;38737.00;;;-146.10;100.00
12763;BME280;6445;52.490;13.378;2024-03-25T00:30:36;39365.06;;;-146.10;100.00
12763;BME280;6445;52.490;13.378;2024-03-25T00:33:01;39610.34;;;-146.10;100.00
12763;BME280;6445;52.490;13.378;2024-03-25T00:35:27;38569.50;;;-146.10;100.00
12763;BME280;6445;52.490;13.378;2024-03-25T00:37:52;37341.59;;;-146.10;100.00
12763;BME280;6445;52.490;13.378;2024-03-25T00:40:17;38372.13;;;-146.10;100.00
12763;BME280;6445;52.490;13.378;2024-03-25T00:42:43;40354.28;;;-146.10;100.00
12763;BME280;6445;52.490;13.378;2024-03-25T00:45:08;40914.78;;;-146.10;100.00
12763;BME280;6445;52.490;13.378;2024-03-25T00:47:34;42710.59;;;-146.10;100.00
12763;BME280;6445;52.490;13.378;2024-03-25T00:49:59;42367.34;;;-146.10;100.00
12763;BME280;6445;52.490;13.378;2024-03-25T00:52:24;44317.53;;;-146.10;100.00
12763;BME280;6445;52.490;13.378;2024-03-25T00:54:49;47851.13;;;-146.10;100.00
12763;BME280;6445;52.490;13.378;2024-03-25T00:57:15;49154.28;;;-146.10;100.00
12763;BME280;6445;52.490;13.378;2024-03-25T00:59:40;50057.97;;;-146.10;100.00
12763;BME280;6445;52.490;13.378;2024-03-25T01:02:06;47491.44;;;-146.10;100.00
12763;BME280;6445;52.490;13.378;2024-03-25T01:04:31;47275.63;;;-146.10;100.00
12763;BME280;6445;52.490;13.378;2024-03-25T01:06:56;48676.53;;;-146.10;100.00
12763;BME280;6445;52.490;13.378;2024-03-25T01:09:22;47705.25;;;-146.10;100.00
12763;BME280;6445;52.490;13.378;2024-03-25T01:11:48;51131.84;;;-146.10;100.00
12763;BME280;6445;52.490;13.378;2024-03-25T01:14:13;52982.34;;;-146.10;100.00
12763;BME280;6445;52.490;13.378;2024-03-25T01:16:38;54567.44;;;-146.10;100.00
12763;BME280;6445;52.490;13.378;2024-03-25T01:19:03;54577.44;;;-146.10;100.00
12763;BME280;6445;52.490;13.378;2024-03-25T01:21:28;54723.56;;;-146.10;100.00
12763;BME280;6445;52.490;13.378;2024-03-25T01:23:55;57016.38;;;-146.10;100.00
12763;BME280;6445;52.490;13.378;2024-03-25T01:26:20;57336.88;;;-146.10;100.00
12763;BME280;6445;52.490;13.378;2024-03-25T01:28:45;60284.66;;;-146.10;100.00
12763;BME280;6445;52.490;13.378;2024-03-25T01:31:11;58833.53;;;-146.10;100.00
12763;BME280;6445;52.490;13.378;2024-03-25T01:33:36;60338.78;;;-146.10;100.00
12763;BME280;6445;52.490;13.378;2024-03-25T01:36:02;60056.13;;;-146.10;100.00
12763;BME280;6445;52.490;13.378;2024-03-25T01:38:27;62293.88;;;-146.10;100.00
12763;BME280;6445;52.490;13.378;2024-03-25T01:40:53;60924.22;;;-146.10;100.00
12763;BME280;6445;52.490;13.378;2024-03-25T01:43:18;61327.25;;;-146.10;100.00
12763;BME280;6445;52.490;13.378;2024-03-25T01:45:43;62448.31;;;-146.10;100.00
12763;BME280;6445;52.490;13.378;2024-03-25T01:48:11;64938.25;;;-146.10;100.00
12763;BME280;6445;52.490;13.378;2024-03-25T01:50:41;65155.00;;;-146.10;100.00
12763;BME280;6445;52.490;13.378;2024-03-25T01:53:07;67459.88;;;-146.10;100.00
12763;BME280;6445;52.490;13.378;2024-03-25T01:55:34;68873.94;;;-146.10;100.00
12763;BME280;6445;52.490;13.378;2024-03-25T01:58:00;70756.84;;;-146.10;100.00
12763;BME280;6445;52.490;13.378;2024-03-25T02:00:26;70055.41;;;-146.10;100.00
12763;BME280;6445;52.490;13.378;2024-03-25T02:02:52;70346.81;;;-146.10;100.00
12763;BME280;6445;52.490;13.378;2024-03-25T02:05:18;75497.09;;;-146.10;100.00
12763;BME280;6445;52.490;13.378;2024-03-25T02:07:44;76020.34;;;-146.10;100.00
12763;BME280;6445;52.490;13.378;2024-03-25T02:10:10;77634.78;;;-146.10;100.00
12763;BME280;6445;52.490;13.378;2024-03-25T02:12:38;77779.75;;;-146.10;100.00
12763;BME280;6445;52.490;13.378;2024-03-25T02:15:05;79628.56;;;-146.10;100.00
12763;BME280;6445;52.490;13.378;2024-03-25T02:17:30;79118.94;;;-146.10;100.00
12763;BME280;6445;52.490;13.378;2024-03-25T02:19:55;78138.16;;;-146.10;100.00
12763;BME280;6445;52.490;13.378;2024-03-25T02:22:21;76137.09;;;-146.10;100.00
12763;BME280;6445;52.490;13.378;2024-03-25T02:24:49;73406.84;;;-146.10;100.00
12763;BME280;6445;52.490;13.378;2024-03-25T02:27:16;68448.06;;;-146.10;100.00
12763;BME280;6445;52.490;13.378;2024-03-25T02:29:41;59915.81;;;-146.10;100.00
12763;BME280;6445;52.490;13.378;2024-03-25T02:32:07;53250.47;;;-146.10;100.00
12763;BME280;6445;52.490;13.378;2024-03-25T02:34:56;48872.44;;;-146.10;100.00
12763;BME280;6445;52.490;13.378;2024-03-25T02:37:21;44307.56;;;-146.10;100.00
12763;BME280;6445;52.490;13.378;2024-03-25T02:39:47;40575.69;;;-146.10;100.00
12763;BME280;6445;52.490;13.378;2024-03-25T02:42:12;37229.97;;;-146.10;100.00
12763;BME280;6445;52.490;13.378;2024-03-25T02:44:38;33455.03;;;-146.10;100.00
12763;BME280;6445;52.490;13.378;2024-03-25T02:47:03;33779.59;;;-146.10;100.00
12763;BME280;6445;52.490;13.378;2024-03-25T02:49:29;35273.31;;;-146.10;100.00
12763;BME280;6445;52.490;13.378;2024-03-25T02:51:54;33492.88;;;-146.10;100.00
12763;BME280;6445;52.490;13.378;2024-03-25T02:54:19;33857.25;;;-146.10;100.00
12763;BME280;6445;52.490;13.378;2024-03-25T02:56:45;33228.06;;;-146.10;100.00
12763;BME280;6445;52.490;13.378;2024-03-25T02:59:10;31983.88;;;-146.10;100.00
12763;BME280;6445;52.490;13.378;2024-03-25T03:01:35;31617.69;;;-146.10;100.00
12763;BME280;6445;52.490;13.378;2024-03-25T03:04:00;32792.06;;;-146.10;100.00
12763;BME280;6445;52.490;13.378;2024-03-25T03:06:26;35305.19;;;-146.10;100.00
12763;BME280;6445;52.490;13.378;2024-03-25T03:08:51;35155.81;;;-146.10;100.00
12763;BME280;6445;52.490;13.378;2024-03-25T03:11:16;35719.56;;;-146.10;100.00
12763;BME280;6445;52.490;13.378;2024-03-25T03:13:41;37451.22;;;-146.10;100.00
12763;BME280;6445;52.490;13.378;2024-03-25T03:16:07;35849.06;;;-146.10;100.00
12763;BME280;6445;52.490;13.378;2024-03-25T03:18:32;37815.97;;;-146.10;100.00
12763;BME280;6445;52.490;13.378;2024-03-25T03:20:57;38130.94;;;-146.10;100.00
12763;BME280;6445;52.490;13.378;2024-03-25T03:23:23;36488.66;;;-146.10;100.00
12763;BME280;6445;52.490;13.378;2024-03-25T03:25:48;37106.41;;;-146.10;100.00
12763;BME280;6445;52.490;13.378;2024-03-25T03:28:14;37293.75;;;-146.10;100.00
12763;BME280;6445;52.490;13.378;2024-03-25T03:30:40;36769.63;;;-146.10;100.00
12763;BME280;6445;52.490;13.378;2024-03-25T03:33:05;37156.25;;;-146.10;100.00
12763;BME280;6445;52.490;13.378;2024-03-25T03:35:32;36502.59;;;-146.10;100.00
12763;BME280;6445;52.490;13.378;2024-03-25T03:37:58;37365.50;;;-146.10;100.00
12763;BME280;6445;52.490;13.378;2024-03-25T03:40:23;37275.81;;;-146.10;100.00
12763;BME280;6445;52.490;13.378;2024-03-25T03:42:48;36245.56;;;-146.10;100.00
12763;BME280;6445;52.490;13.378;2024-03-25T03:45:13;36713.81;;;-146.10;100.00
12763;BME280;6445;52.490;13.378;2024-03-25T03:47:39;36795.53;;;-146.10;100.00
12763;BME280;6445;52.490;13.378;2024-03-25T03:50:04;36751.69;;;-146.10;100.00
12763;BME280;6445;52.490;13.378;2024-03-25T03:52:30;37487.09;;;-146.10;100.00
12763;BME280;6445;52.490;13.378;2024-03-25T03:54:55;37758.16;;;-146.10;100.00
12763;BME280;6445;52.490;13.378;2024-03-25T03:57:20;37178.16;;;-146.10;100.00
12763;BME280;6445;52.490;13.378;2024-03-25T03:59:45;34580.16;;;-146.10;100.00
12763;BME280;6445;52.490;13.378;2024-03-25T04:02:11;33050.88;;;-146.10;100.00
12763;BME280;6445;52.490;13.378;2024-03-25T04:04:36;32334.22;;;-146.10;100.00
12763;BME280;6445;52.490;13.378;2024-03-25T04:07:02;28198.09;;;-146.10;100.00
12763;BME280;6445;52.490;13.378;2024-03-25T04:09:27;26359.22;;;-146.10;100.00
12763;BME280;6445;52.490;13.378;2024-03-25T04:11:54;25051.69;;;-146.10;100.00
12763;BME280;6445;52.490;13.378;2024-03-25T04:14:19;23754.50;;;-146.10;100.00
12763;BME280;6445;52.490;13.378;2024-03-25T04:16:44;22269.13;;;-146.10;100.00
12763;BME280;6445;52.490;13.378;2024-03-25T04:19:10;21058.22;;;-146.10;100.00
12763;BME280;6445;52.490;13.378;2024-03-25T04:21:36;19534.19;;;-146.10;100.00
12763;BME280;6445;52.490;13.378;2024-03-25T04:24:01;17998.88;;;-146.10;100.00
12763;BME280;6445;52.490;13.378;2024-03-25T04:26:26;16854.72;;;-146.10;100.00
12763;BME280;6445;52.490;13.378;2024-03-25T04:28:51;15411.63;;;-146.10;100.00
12763;BME280;6445;52.490;13.378;2024-03-25T04:31:17;14482.22;;;-146.10;100.00
12763;BME280;6445;52.490;13.378;2024-03-25T04:33:42;12931.06;;;-146.10;100.00
12763;BME280;6445;52.490;13.378;2024-03-25T04:36:07;12285.41;;;-146.10;100.00
12763;BME280;6445;52.490;13.378;2024-03-25T04:38:33;12531.00;;;-146.10;100.00
12763;BME280;6445;52.490;13.378;2024-03-25T04:40:58;12992.47;;;-146.10;100.00
12763;BME280;6445;52.490;13.378;2024-03-25T04:43:23;12820.16;;;-146.10;100.00
12763;BME280;6445;52.490;13.378;2024-03-25T04:45:48;12996.41;;;-146.10;100.00
12763;BME280;6445;52.490;13.378;2024-03-25T04:48:14;12430.00;;;-146.10;100.00
12763;BME280;6445;52.490;13.378;2024-03-25T04:50:39;11796.31;;;-146.10;100.00
12763;BME280;6445;52.490;13.378;2024-03-25T04:53:04;10252.16;;;-146.10;100.00
12763;BME280;6445;52.490;13.378;2024-03-25T04:55:29;9589.16;;;-146.10;100.00
12763;BME280;6445;52.490;13.378;2024-03-25T04:57:55;9945.41;;;-146.10;100.00
12763;BME280;6445;52.490;13.378;2024-03-25T05:00:20;10394.69;;;-146.10;100.00
12763;BME280;6445;52.490;13.378;2024-03-25T05:02:45;10448.12;;;-146.10;100.00
12763;BME280;6445;52.490;13.378;2024-03-25T05:05:10;10634.19;;;-146.10;100.00
12763;BME280;6445;52.490;13.378;2024-03-25T05:07:36;10604.50;;;-146.10;100.00
12763;BME280;6445;52.490;13.378;2024-03-25T05:10:01;10327.38;;;-146.10;100.00
12763;BME280;6445;52.490;13.378;2024-03-25T05:12:26;10760.88;;;-146.10;100.00
12763;BME280;6445;52.490;13.378;2024-03-25T05:14:57;10747.03;;;-146.10;100.00
12763;BME280;6445;52.490;13.378;2024-03-25T05:17:23;10994.47;;;-146.10;100.00
12763;BME280;6445;52.490;13.378;2024-03-25T05:19:48;10828.19;;;-146.10;100.00
12763;BME280;6445;52.490;13.378;2024-03-25T05:22:13;11558.72;;;-146.10;100.00
12763;BME280;6445;52.490;13.378;2024-03-25T05:24:38;11406.25;;;-146.10;100.00
12763;BME280;6445;52.490;13.378;2024-03-25T05:27:04;11366.66;;;-146.10;100.00
12763;BME280;6445;52.490;13.378;2024-03-25T05:29:29;11184.53;;;-146.10;100.00
12763;BME280;6445;52.490;13.378;2024-03-25T05:32:01;11160.75;;;-146.10;100.00
12763;BME280;6445;52.490;13.378;2024-03-25T05:34:27;11327.06;;;-146.10;100.00
12763;BME280;6445;52.490;13.378;2024-03-25T05:36:53;11588.41;;;-146.10;100.00
12763;BME280;6445;52.490;13.378;2024-03-25T05:39:19;11839.88;;;-146.10;100.00
12763;BME280;6445;52.490;13.378;2024-03-25T05:41:44;10875.69;;;-146.10;100.00
12763;BME280;6445;52.490;13.378;2024-03-25T05:44:10;10366.97;;;-146.10;100.00
12763;BME280;6445;52.490;13.378;2024-03-25T05:46:35;9337.84;;;-146.10;100.00
12763;BME280;6445;52.490;13.378;2024-03-25T05:49:02;9769.25;;;-146.10;100.00
12763;BME280;6445;52.490;13.378;2024-03-25T05:51:27;9921.66;;;-146.10;100.00
12763;BME280;6445;52.490;13.378;2024-03-25T05:53:52;9605.00;;;-146.10;100.00
12763;BME280;6445;52.490;13.378;2024-03-25T05:56:18;10226.44;;;-146.10;100.00
12763;BME280;6445;52.490;13.378;2024-03-25T05:58:43;9759.38;;;-146.10;100.00
12763;BME280;6445;52.490;13.378;2024-03-25T06:01:08;9650.53;;;-146.10;100.00
12763;BME280;6445;52.490;13.378;2024-03-25T06:03:34;9996.84;;;-146.10;100.00
12763;BME280;6445;52.490;13.378;2024-03-25T06:05:59;10129.47;;;-146.10;100.00
12763;BME280;6445;52.490;13.378;2024-03-25T06:08:24;10507.50;;;-146.10;100.00
12763;BME280;6445;52.490;13.378;2024-03-25T06:10:53;10529.28;;;-146.10;100.00
12763;BME280;6445;52.490;13.378;2024-03-25T06:13:19;11414.19;;;-146.10;100.00
12763;BME280;6445;52.490;13.378;2024-03-25T06:15:44;11562.69;;;-146.10;100.00
12763;BME280;6445;52.490;13.378;2024-03-25T06:18:10;11954.72;;;-146.10;100.00
12763;BME280;6445;52.490;13.378;2024-03-25T06:20:35;12077.50;;;-146.10;100.00
12763;BME280;6445;52.490;13.378;2024-03-25T06:23:00;13515.38;;;-146.10;100.00
12763;BME280;6445;52.490;13.378;2024-03-25T06:25:26;12632.00;;;-146.10;100.00
12763;BME280;6445;52.490;13.378;2024-03-25T06:27:52;13107.34;;;-146.10;100.00
12763;BME280;6445;52.490;13.378;2024-03-25T06:30:17;13113.28;;;-146.10;100.00
12763;BME280;6445;52.490;13.378;2024-03-25T06:33:00;13800.66;;;-146.10;100.00
12763;BME280;6445;52.490;13.378;2024-03-25T06:35:45;14089.91;;;-146.10;100.00
12763;BME280;6445;52.490;13.378;2024-03-25T06:38:10;14902.31;;;-146.10;100.00
12763;BME280;6445;52.490;13.378;2024-03-25T06:40:36;15756.47;;;-146.10;100.00
12763;BME280;6445;52.490;13.378;2024-03-25T06:43:02;16404.69;;;-146.10;100.00
12763;BME280;6445;52.490;13.378;2024-03-25T06:45:27;17495.16;;;-146.10;100.00
12763;BME280;6445;52.490;13.378;2024-03-25T06:47:52;17229.47;;;-146.10;100.00
12763;BME280;6445;52.490;13.378;2024-03-25T06:50:17;18861.69;;;-146.10;100.00
12763;BME280;6445;52.490;13.378;2024-03-25T06:52:43;20800.19;;;-146.10;100.00
12763;BME280;6445;52.490;13.378;2024-03-25T06:55:08;20292.16;;;-146.10;100.00
12763;BME280;6445;52.490;13.378;2024-03-25T06:57:33;22237.38;;;-146.10;100.00
12763;BME280;6445;52.490;13.378;2024-03-25T06:59:58;23538.00;;;-146.10;100.00
12763;BME280;6445;52.490;13.378;2024-03-25T07:02:24;22300.91;;;-146.10;100.00
12763;BME280;6445;52.490;13.378;2024-03-25T07:04:49;22219.50;;;-146.10;100.00
12763;BME280;6445;52.490;13.378;2024-03-25T07:07:14;22416.06;;;-146.10;100.00
12763;BME280;6445;52.490;13.378;2024-03-25T07:09:40;21457.19;;;-146.10;100.00
12763;BME280;6445;52.490;13.378;2024-03-25T07:12:06;20869.66;;;-146.10;100.00
12763;BME280;6445;52.490;13.378;2024-03-25T07:14:31;19946.91;;;-146.10;100.00
12763;BME280;6445;52.490;13.378;2024-03-25T07:16:56;17465.41;;;-146.10;100.00
12763;BME280;6445;52.490;13.378;2024-03-25T07:19:22;17487.22;;;-146.10;100.00
12763;BME280;6445;52.490;13.378;2024-03-25T07:21:47;15241.19;;;-146.10;100.00
12763;BME280;6445;52.490;13.378;2024-03-25T07:24:12;14807.19;;;-146.10;100.00
12763;BME280;6445;52.490;13.378;2024-03-25T07:26:37;19319.94;;;-146.10;100.00
12763;BME280;6445;52.490;13.378;2024-03-25T07:29:02;17772.78;;;-146.10;100.00
12763;BME280;6445;52.490;13.378;2024-03-25T07:31:28;19226.69;;;-146.10;100.00
12763;BME280;6445;52.490;13.378;2024-03-25T07:33:53;19599.66;;;-146.10;100.00
12763;BME280;6445;52.490;13.378;2024-03-25T07:36:18;21203.09;;;-146.10;100.00
12763;BME280;6445;52.490;13.378;2024-03-25T07:38:44;21254.72;;;-146.10;100.00
12763;BME280;6445;52.490;13.378;2024-03-25T07:41:09;25373.56;;;-146.10;100.00
12763;BME280;6445;52.490;13.378;2024-03-25T07:43:34;20585.88;;;-146.10;100.00
12763;BME280;6445;52.490;13.378;2024-03-25T07:46:00;23826.00;;;-146.10;100.00
12763;BME280;6445;52.490;13.378;2024-03-25T07:48:25;23136.84;;;-146.10;100.00
12763;BME280;6445;52.490;13.378;2024-03-25T07:50:50;21991.19;;;-146.10;100.00
12763;BME280;6445;52.490;13.378;2024-03-25T07:53:16;22630.50;;;-146.10;100.00
12763;BME280;6445;52.490;13.378;2024-03-25T07:55:41;24682.16;;;-146.10;100.00
12763;BME280;6445;52.490;13.378;2024-03-25T07:58:06;24143.81;;;-146.10;100.00
12763;BME280;6445;52.490;13.378;2024-03-25T08:00:31;23780.31;;;-146.10;100.00
12763;BME280;6445;52.490;13.378;2024-03-25T08:02:57;23559.84;;;-146.10;100.00
12763;BME280;6445;52.490;13.378;2024-03-25T08:05:22;23466.50;;;-146.10;100.00
12763;BME280;6445;52.490;13.378;2024-03-25T08:07:47;26480.47;;;-146.10;100.00
12763;BME280;6445;52.490;13.378;2024-03-25T08:10:13;25498.75;;;-146.10;100.00
12763;BME280;6445;52.490;13.378;2024-03-25T08:12:38;25087.44;;;-146.10;100.00
12763;BME280;6445;52.490;13.378;2024-03-25T08:15:04;25663.66;;;-146.10;100.00
12763;BME280;6445;52.490;13.378;2024-03-25T08:17:29;26999.25;;;-146.10;100.00
12763;BME280;6445;52.490;13.378;2024-03-25T08:19:54;31904.28;;;-146.10;100.00
12763;BME280;6445;52.490;13.378;2024-03-25T08:22:20;34960.59;;;-146.10;100.00
12763;BME280;6445;52.490;13.378;2024-03-25T08:24:45;38091.06;;;-146.10;100.00
12763;BME280;6445;52.490;13.378;2024-03-25T08:27:10;43101.78;;;-146.10;100.00
12763;BME280;6445;52.490;13.378;2024-03-25T08:29:35;43459.09;;;-146.10;100.00
12763;BME280;6445;52.490;13.378;2024-03-25T08:32:01;50219.94;;;-146.10;100.00
12763;BME280;6445;52.490;13.378;2024-03-25T08:34:26;53680.75;;;-146.10;100.00
12763;BME280;6445;52.490;13.378;2024-03-25T08:36:51;51947.97;;;-146.10;100.00
12763;BME280;6445;52.490;13.378;2024-03-25T08:39:16;58835.56;;;-146.10;100.00
12763;BME280;6445;52.490;13.378;2024-03-25T08:41:42;59865.72;;;-146.10;100.00
12763;BME280;6445;52.490;13.378;2024-03-25T08:44:07;63549.63;;;-146.10;100.00
12763;BME280;6445;52.490;13.378;2024-03-25T08:46:32;67733.00;;;-146.10;100.00
12763;BME280;6445;52.490;13.378;2024-03-25T08:48:57;71158.84;;;-146.10;100.00
12763;BME280;6445;52.490;13.378;2024-03-25T08:51:23;72407.34;;;-146.10;100.00
12763;BME280;6445;52.490;13.378;2024-03-25T08:53:48;77175.75;;;-146.10;100.00
12763;BME280;6445;52.490;13.378;2024-03-25T08:56:15;79316.34;;;-146.10;100.00
12763;BME280;6445;52.490;13.378;2024-03-25T08:58:40;82155.41;;;-146.10;100.00
12763;BME280;6445;52.490;13.378;2024-03-25T09:01:05;81822.84;;;-146.10;100.00
12763;BME280;6445;52.490;13.378;2024-03-25T09:03:31;86717.47;;;-146.10;100.00
12763;BME280;6445;52.490;13.378;2024-03-25T09:05:56;96969.69;;;-146.10;100.00
12763;BME280;6445;52.490;13.378;2024-03-25T09:08:21;96348.63;;;-146.10;100.00
12763;BME280;6445;52.490;13.378;2024-03-25T09:10:47;100748.56;;;-146.10;100.00
12763;BME280;6445;52.490;13.378;2024-03-25T09:13:32;102917.91;;;-146.10;100.00
12763;BME280;6445;52.490;13.378;2024-03-25T09:15:58;103604.81;;;-146.10;100.00
12763;BME280;6445;52.490;13.378;2024-03-25T09:18:23;103345.44;;;-146.10;100.00
12763;BME280;6445;52.490;13.378;2024-03-25T09:20:49;105420.88;;;-146.10;100.00
12763;BME280;6445;52.490;13.378;2024-03-25T09:23:14;104642.47;;;-146.10;100.00
12763;BME280;6445;52.490;13.378;2024-03-25T09:25:39;103604.81;;;-146.10;100.00
12763;BME280;6445;52.490;13.378;2024-03-25T09:28:05;105161.41;;;-146.10;100.00
12763;BME280;6445;52.490;13.378;2024-03-25T09:30:31;105939.91;;;-146.10;100.00
12763;BME280;6445;52.490;13.378;2024-03-25T09:32:56;106459.00;;;-146.10;100.00
12763;BME280;6445;52.490;13.378;2024-03-25T09:35:22;108276.34;;;-146.10;100.00
12763;BME280;6445;52.490;13.378;2024-03-25T09:37:50;106459.00;;;-146.10;100.00
12763;BME280;6445;52.490;13.378;2024-03-25T09:40:16;105161.41;;;-146.10;100.00
12763;BME280;6445;52.490;13.378;2024-03-25T09:42:56;104642.47;;;-146.10;100.00
12763;BME280;6445;52.490;13.378;2024-03-25T09:45:24;105939.91;;;-146.10;100.00
12763;BME280;6445;52.490;13.378;2024-03-25T09:47:51;104642.47;;;-146.10;100.00
12763;BME280;6445;52.490;13.378;2024-03-25T09:50:16;101271.06;;;-146.10;100.00
12763;BME280;6445;52.490;13.378;2024-03-25T09:52:48;99975.09;;;-146.10;100.00
12763;BME280;6445;52.490;13.378;2024-03-25T09:55:13;96348.63;;;-146.10;100.00
12763;BME280;6445;52.490;13.378;2024-03-25T09:57:39;91690.81;;;-146.10;100.00
12763;BME280;6445;52.490;13.378;2024-03-25T10:00:09;77695.19;;;-146.10;100.00
12763;BME280;6445;52.490;13.378;2024-03-25T10:02:37;82677.53;;;-146.10;100.00
12763;BME280;6445;52.490;13.378;2024-03-25T10:05:04;80754.78;;;-146.10;100.00
12763;BME280;6445;52.490;13.378;2024-03-25T10:07:29;85746.97;;;-146.10;100.00
12763;BME280;6445;52.490;13.378;2024-03-25T10:09:55;88847.00;;;-146.10;100.00
12763;BME280;6445;52.490;13.378;2024-03-25T10:12:21;92466.75;;;-146.10;100.00
12763;BME280;6445;52.490;13.378;2024-03-25T10:14:46;91432.19;;;-146.10;100.00
12763;BME280;6445;52.490;13.378;2024-03-25T10:17:13;89363.91;;;-146.10;100.00
12763;BME280;6445;52.490;13.378;2024-03-25T10:19:38;85746.97;;;-146.10;100.00
12763;BME280;6445;52.490;13.378;2024-03-25T10:22:08;82391.25;;;-146.10;100.00
12763;BME280;6445;52.490;13.378;2024-03-25T10:24:44;78381.81;;;-146.10;100.00
12763;BME280;6445;52.490;13.378;2024-03-25T10:27:16;83165.41;;;-146.10;100.00
12763;BME280;6445;52.490;13.378;2024-03-25T10:29:42;83939.69;;;-146.10;100.00
12763;BME280;6445;52.490;13.378;2024-03-25T10:32:07;79554.03;;;-146.10;100.00
12763;BME280;6445;52.490;13.378;2024-03-25T10:34:33;76914.03;;;-146.10;100.00
12763;BME280;6445;52.490;13.378;2024-03-25T10:36:58;77360.97;;;-146.10;100.00
12763;BME280;6445;52.490;13.378;2024-03-25T10:39:27;69938.88;;;-146.10;97.49
12763;BME280;6445;52.490;13.378;2024-03-25T10:41:56;67610.50;;;-146.10;96.44
12763;BME280;6445;52.490;13.378;2024-03-25T10:44:23;61002.41;;;-146.10;92.41
12763;BME280;6445;52.490;13.378;2024-03-25T10:46:53;59607.16;;;-146.10;91.28
12763;BME280;6445;52.490;13.378;2024-03-25T10:49:27;57390.97;;;-146.10;89.30
12763;BME280;6445;52.490;13.378;2024-03-25T10:51:56;56705.94;;;-146.10;88.30
12763;BME280;6445;52.490;13.378;2024-03-25T10:54:22;58372.66;;;-146.10;90.10
12763;BME280;6445;52.490;13.378;2024-03-25T10:56:48;56503.63;;;-146.10;87.83
12763;BME280;6445;52.490;13.378;2024-03-25T10:59:18;57258.75;;;-146.10;89.17
12763;BME280;6445;52.490;13.378;2024-03-25T11:01:43;56709.94;;;-146.10;88.47
12763;BME280;6445;52.490;13.378;2024-03-25T11:04:10;56255.31;;;-146.10;87.43
12763;BME280;6445;52.490;13.378;2024-03-25T11:06:36;55115.97;;;-146.10;85.96
12763;BME280;6445;52.490;13.378;2024-03-25T11:09:01;54309.22;;;-146.10;84.01
12763;BME280;6445;52.490;13.378;2024-03-25T11:11:33;53776.81;;;-146.10;82.81
12763;BME280;6445;52.490;13.378;2024-03-25T11:14:02;53110.41;;;-146.10;79.66
12763;BME280;6445;52.490;13.378;2024-03-25T11:16:31;52644.19;;;-146.10;76.78
12763;BME280;6445;52.490;13.378;2024-03-25T11:19:03;52466.09;;;-146.10;75.88
12763;BME280;6445;52.490;13.378;2024-03-25T11:21:28;52280.03;;;-146.10;72.36
12763;BME280;6445;52.490;13.378;2024-03-25T11:23:53;52156.00;;;-146.10;70.69
12763;BME280;6445;52.490;13.378;2024-03-25T11:26:24;52186.03;;;-146.10;72.18
12763;BME280;6445;52.490;13.378;2024-03-25T11:28:50;52214.03;;;-146.10;73.62
12763;BME280;6445;52.490;13.378;2024-03-25T11:31:20;52224.03;;;-146.10;72.58
12763;BME280;6445;52.490;13.378;2024-03-25T11:33:45;52204.03;;;-146.10;71.17
12763;BME280;6445;52.490;13.378;2024-03-25T11:36:10;52148.00;;;-146.10;70.17
12763;BME280;6445;52.490;13.378;2024-03-25T11:38:36;52124.00;;;-146.10;68.69
12763;BME280;6445;52.490;13.378;2024-03-25T11:41:03;52098.00;;;-146.10;68.20
12763;BME280;6445;52.490;13.378;2024-03-25T11:43:29;52106.00;;;-146.10;68.44
12763;BME280;6445;52.490;13.378;2024-03-25T11:45:54;52118.00;;;-146.10;68.18
12763;BME280;6445;52.490;13.378;2024-03-25T11:48:20;52120.00;;;-146.10;66.30
12763;BME280;6445;52.490;13.378;2024-03-25T11:50:46;52102.00;;;-146.10;65.06
12763;BME280;6445;52.490;13.378;2024-03-25T11:53:13;52098.00;;;-146.10;62.80
12763;BME280;6445;52.490;13.378;2024-03-25T11:55:39;52092.00;;;-146.10;60.94
12763;BME280;6445;52.490;13.378;2024-03-25T11:58:04;52049.97;;;-146.10;58.90
12763;BME280;6445;52.490;13.378;2024-03-25T12:00:30;52078.00;;;-146.10;59.45
12763;BME280;6445;52.490;13.378;2024-03-25T12:02:56;52031.97;;;-146.10;60.55
12763;BME280;6445;52.490;13.378;2024-03-25T12:05:21;52041.97;;;-146.10;60.46
12763;BME280;6445;52.490;13.378;2024-03-25T12:07:47;52072.00;;;-146.10;58.15
12763;BME280;6445;52.490;13.378;2024-03-25T12:10:14;52067.97;;;-146.10;57.12
12763;BME280;6445;52.490;13.378;2024-03-25T12:12:57;52086.00;;;-146.10;55.95
12763;BME280;6445;52.490;13.378;2024-03-25T12:15:23;52070.00;;;-146.10;54.61
12763;BME280;6445;52.490;13.378;2024-03-25T12:17:49;52114.00;;;-146.10;55.17
12763;BME280;6445;52.490;13.378;2024-03-25T12:20:16;52122.00;;;-146.10;51.33
12763;BME280;6445;52.490;13.378;2024-03-25T12:22:43;52142.00;;;-146.10;51.35
12763;BME280;6445;52.490;13.378;2024-03-25T12:25:08;52170.00;;;-146.10;48.84